Time;durP1;ratioP1;P1;durP2;ratioP2;P2;SDS_P1;SDS_P2;PMS_P1;PMS_P2;Temp;Humidity;BMP_temperature;BMP_pressure;BME280_temperature;BME280_humidity;BME280_pressure;Samples;Min_cycle;Max_cycle;Signal;HPM_P1;HPM_P2
2023/06/24 00:02:17;;;;;;;4.20;2.10;;;;;;;;;;5043209;28;20037;-84
2023/06/24 00:04:42;;;;;;;3.67;2.50;;;;;;;;;;5037181;28;20046;-82
2023/06/24 00:07:08;;;;;;;3.85;2.47;;;;;;;;;;5036651;28;20037;-82
2023/06/24 00:09:33;;;;;;;3.55;2.20;;;;;;;;;;5040250;28;20041;-83
2023/06/24 00:11:59;;;;;;;3.25;2.20;;;;;;;;;;5048531;28;20071;-81
2023/06/24 00:14:26;;;;;;;3.53;2.42;;;;;;;;;;5049728;28;20043;-82
2023/06/24 00:16:56;;;;;;;3.53;2.30;;;;;;;;;;5052935;28;20083;-83
2023/06/24 00:19:23;;;;;;;3.40;2.47;;;;;;;;;;5028965;28;20034;-82
2023/06/24 00:21:52;;;;;;;3.33;2.33;;;;;;;;;;5038360;28;20029;-82
2023/06/24 00:24:25;;;;;;;3.75;2.50;;;;;;;;;;5024600;28;20041;-83
2023/06/24 00:26:54;;;;;;;3.47;2.53;;;;;;;;;;5045318;28;20036;-82
2023/06/24 00:29:20;;;;;;;5.07;2.55;;;;;;;;;;5047510;28;20037;-82
2023/06/24 00:31:45;;;;;;;3.83;2.60;;;;;;;;;;5045925;28;20043;-82
2023/06/24 00:34:11;;;;;;;3.53;2.70;;;;;;;;;;5053151;28;20041;-82
2023/06/24 00:36:37;;;;;;;4.10;2.70;;;;;;;;;;5034159;28;20036;-82
2023/06/24 00:39:03;;;;;;;3.33;2.28;;;;;;;;;;5035834;28;20036;-82
2023/06/24 00:41:30;;;;;;;3.40;2.30;;;;;;;;;;5025156;28;20021;-82
2023/06/24 00:43:59;;;;;;;2.90;2.10;;;;;;;;;;5028229;28;20120;-82
2023/06/24 00:46:26;;;;;;;3.60;2.05;;;;;;;;;;5045947;28;20478;-82
2023/06/24 00:48:56;;;;;;;2.90;2.20;;;;;;;;;;5048492;28;20335;-82
2023/06/24 00:51:33;;;;;;;3.08;2.25;;;;;;;;;;5024667;28;20063;-82
2023/06/24 00:54:00;;;;;;;2.90;2.15;;;;;;;;;;5041812;28;20086;-82
2023/06/24 00:56:38;;;;;;;2.72;2.20;;;;;;;;;;5046716;28;20021;-82
2023/06/24 00:59:04;;;;;;;3.47;2.38;;;;;;;;;;5050552;28;20048;-82
2023/06/24 01:01:35;;;;;;;2.92;2.20;;;;;;;;;;5056192;28;20051;-82
2023/06/24 01:04:02;;;;;;;3.83;2.00;;;;;;;;;;5042016;28;20091;-82
2023/06/24 01:06:29;;;;;;;2.67;2.17;;;;;;;;;;5043566;28;20028;-84
2023/06/24 01:09:04;;;;;;;3.35;2.30;;;;;;;;;;5049278;28;20064;-82
2023/06/24 01:11:30;;;;;;;2.92;2.33;;;;;;;;;;5048128;28;20508;-84
2023/06/24 01:13:57;;;;;;;2.33;2.05;;;;;;;;;;5047989;28;20115;-83
2023/06/24 01:16:45;;;;;;;3.58;2.42;;;;;;;;;;5031756;28;20061;-83
2023/06/24 01:19:33;;;;;;;3.22;2.47;;;;;;;;;;5040757;28;20044;-83
2023/06/24 01:22:01;;;;;;;2.80;2.08;;;;;;;;;;5043180;28;20041;-84
2023/06/24 01:24:46;;;;;;;3.70;2.35;;;;;;;;;;5044750;28;20041;-83
2023/06/24 01:27:50;;;;;;;3.20;2.40;;;;;;;;;;5044772;28;20032;-83
2023/06/24 01:30:36;;;;;;;4.32;2.33;;;;;;;;;;5055592;28;20379;-83
2023/06/24 01:33:08;;;;;;;2.78;2.17;;;;;;;;;;5038233;28;20030;-82
2023/06/24 01:35:35;;;;;;;2.95;2.17;;;;;;;;;;5041122;28;20037;-83
2023/06/24 01:38:11;;;;;;;3.15;1.85;;;;;;;;;;5044082;28;20525;-83
2023/06/24 01:40:45;;;;;;;3.13;2.17;;;;;;;;;;5033561;28;20060;-83
2023/06/24 01:43:15;;;;;;;2.63;2.08;;;;;;;;;;5048813;28;20064;-83
2023/06/24 01:45:42;;;;;;;3.90;2.20;;;;;;;;;;5050396;28;20044;-83
2023/06/24 01:48:17;;;;;;;2.70;2.08;;;;;;;;;;5033118;28;20026;-83
2023/06/24 01:51:06;;;;;;;3.60;2.20;;;;;;;;;;5039020;28;20124;-83
2023/06/24 01:53:35;;;;;;;2.72;2.20;;;;;;;;;;5042785;28;20033;-83
2023/06/24 01:56:03;;;;;;;2.75;2.03;;;;;;;;;;5043593;28;20044;-82
2023/06/24 01:58:31;;;;;;;6.20;2.25;;;;;;;;;;5046878;28;20064;-83
2023/06/24 02:00:58;;;;;;;3.10;2.13;;;;;;;;;;5046973;28;20029;-82
2023/06/24 02:03:25;;;;;;;2.70;2.08;;;;;;;;;;5051039;28;20034;-83
2023/06/24 02:05:53;;;;;;;3.30;2.03;;;;;;;;;;5034387;28;20038;-82
2023/06/24 02:08:21;;;;;;;3.15;1.90;;;;;;;;;;5041782;28;20052;-82
2023/06/24 02:10:48;;;;;;;3.22;1.88;;;;;;;;;;5046937;28;20111;-83
2023/06/24 02:13:16;;;;;;;2.78;2.28;;;;;;;;;;5044806;28;20061;-83
2023/06/24 02:15:42;;;;;;;4.30;2.25;;;;;;;;;;5049103;28;20036;-82
2023/06/24 02:18:10;;;;;;;4.07;2.30;;;;;;;;;;5050843;28;20097;-82
2023/06/24 02:20:38;;;;;;;2.90;2.00;;;;;;;;;;5047384;28;20059;-83
2023/06/24 02:23:08;;;;;;;3.45;2.10;;;;;;;;;;5037137;28;20119;-82
2023/06/24 02:25:33;;;;;;;3.33;2.25;;;;;;;;;;5037906;28;20038;-83
2023/06/24 02:27:59;;;;;;;3.05;2.10;;;;;;;;;;5043063;28;20120;-82
2023/06/24 02:30:25;;;;;;;3.53;2.30;;;;;;;;;;5045739;28;20490;-83
2023/06/24 02:32:52;;;;;;;2.90;1.98;;;;;;;;;;5049504;28;20028;-83
2023/06/24 02:35:17;;;;;;;4.40;2.30;;;;;;;;;;5052539;28;20059;-83
2023/06/24 02:37:43;;;;;;;3.15;2.05;;;;;;;;;;5043137;28;20113;-82
2023/06/24 02:40:09;;;;;;;3.75;2.30;;;;;;;;;;5036901;28;20033;-83
2023/06/24 02:42:35;;;;;;;3.22;2.15;;;;;;;;;;5040180;28;20678;-83
2023/06/24 02:45:03;;;;;;;3.00;2.20;;;;;;;;;;5042966;28;20060;-82
2023/06/24 02:47:29;;;;;;;3.47;2.30;;;;;;;;;;5046202;28;20057;-82
2023/06/24 02:49:57;;;;;;;4.30;2.40;;;;;;;;;;5049425;28;20083;-82
2023/06/24 02:52:24;;;;;;;5.28;2.70;;;;;;;;;;5032452;28;20525;-83
2023/06/24 02:54:49;;;;;;;2.90;2.13;;;;;;;;;;5034958;28;20092;-82
2023/06/24 02:57:22;;;;;;;5.38;2.50;;;;;;;;;;5038334;28;20076;-82
2023/06/24 03:00:12;;;;;;;4.47;2.30;;;;;;;;;;5040808;28;20041;-82
2023/06/24 03:02:58;;;;;;;3.25;2.20;;;;;;;;;;5046044;28;20120;-82
2023/06/24 03:05:25;;;;;;;5.10;2.40;;;;;;;;;;5047798;28;20057;-82
2023/06/24 03:07:53;;;;;;;5.60;2.50;;;;;;;;;;5050075;28;20033;-82
2023/06/24 03:10:22;;;;;;;2.88;2.10;;;;;;;;;;5043381;28;20034;-83
2023/06/24 03:12:48;;;;;;;5.60;2.67;;;;;;;;;;5037212;28;20049;-83
2023/06/24 03:15:13;;;;;;;3.75;2.40;;;;;;;;;;5038553;28;20075;-83
2023/06/24 03:17:39;;;;;;;4.35;2.55;;;;;;;;;;5043413;28;20038;-82
2023/06/24 03:20:05;;;;;;;3.20;2.25;;;;;;;;;;5044528;28;20033;-82
2023/06/24 03:22:31;;;;;;;2.72;2.10;;;;;;;;;;5043307;28;20094;-82
2023/06/24 03:24:57;;;;;;;2.72;2.20;;;;;;;;;;5051226;28;20029;-82
2023/06/24 03:27:23;;;;;;;3.75;2.45;;;;;;;;;;5039058;28;20442;-83
2023/06/24 03:29:49;;;;;;;2.78;2.20;;;;;;;;;;5020238;28;20065;-82
2023/06/24 03:32:14;;;;;;;26.63;2.40;;;;;;;;;;5039819;28;20029;-83
2023/06/24 03:34:41;;;;;;;3.28;2.53;;;;;;;;;;5042226;28;20036;-83
2023/06/24 03:37:09;;;;;;;3.63;2.40;;;;;;;;;;5041826;28;20040;-82
2023/06/24 03:39:38;;;;;;;3.53;2.33;;;;;;;;;;5048364;28;20041;-83
2023/06/24 03:42:04;;;;;;;4.00;2.20;;;;;;;;;;5049619;28;20122;-82
2023/06/24 03:44:30;;;;;;;2.95;2.08;;;;;;;;;;5017462;28;20093;-81
2023/06/24 03:46:56;;;;;;;3.25;2.20;;;;;;;;;;5037134;28;20091;-82
2023/06/24 03:49:21;;;;;;;3.10;2.47;;;;;;;;;;5040801;28;20057;-82
2023/06/24 03:51:47;;;;;;;3.90;2.35;;;;;;;;;;5042421;28;20426;-82
2023/06/24 03:54:13;;;;;;;3.88;2.38;;;;;;;;;;5046294;28;20035;-82
2023/06/24 03:56:39;;;;;;;4.00;2.25;;;;;;;;;;5048961;28;20040;-82
2023/06/24 03:59:04;;;;;;;3.10;2.20;;;;;;;;;;5027509;28;20048;-82
2023/06/24 04:01:31;;;;;;;2.83;2.15;;;;;;;;;;5033710;28;20402;-82
2023/06/24 04:04:00;;;;;;;3.67;2.10;;;;;;;;;;5037030;28;20046;-82
2023/06/24 04:06:25;;;;;;;2.88;2.05;;;;;;;;;;5039577;28;20075;-82
2023/06/24 04:08:52;;;;;;;7.80;2.15;;;;;;;;;;5043308;28;20029;-83
2023/06/24 04:11:18;;;;;;;3.17;2.20;;;;;;;;;;5045706;28;20063;-82
2023/06/24 04:13:48;;;;;;;4.07;2.45;;;;;;;;;;5050294;28;20045;-83
2023/06/24 04:16:14;;;;;;;6.95;2.45;;;;;;;;;;5040599;28;20033;-83
2023/06/24 04:18:40;;;;;;;4.25;2.50;;;;;;;;;;5017059;28;20026;-80
2023/06/24 04:21:09;;;;;;;3.25;2.35;;;;;;;;;;5037737;28;20044;-82
2023/06/24 04:23:34;;;;;;;4.25;2.70;;;;;;;;;;5042188;28;20028;-82
2023/06/24 04:26:00;;;;;;;3.95;2.20;;;;;;;;;;5048651;28;20098;-82
2023/06/24 04:28:25;;;;;;;3.55;2.20;;;;;;;;;;5034033;28;20103;-82
2023/06/24 04:30:51;;;;;;;4.25;2.33;;;;;;;;;;5033449;28;20041;-83
2023/06/24 04:33:17;;;;;;;4.45;2.40;;;;;;;;;;5037991;28;20134;-82
2023/06/24 04:35:44;;;;;;;4.47;2.20;;;;;;;;;;5039154;28;20513;-82
2023/06/24 04:38:10;;;;;;;5.28;2.20;;;;;;;;;;5026291;28;20079;-82
2023/06/24 04:40:36;;;;;;;5.35;2.40;;;;;;;;;;5046755;28;20101;-82
2023/06/24 04:43:02;;;;;;;4.10;2.40;;;;;;;;;;5047550;28;20078;-82
2023/06/24 04:45:27;;;;;;;4.75;2.47;;;;;;;;;;5050702;28;20037;-83
2023/06/24 04:47:53;;;;;;;3.35;2.30;;;;;;;;;;5052400;28;20090;-82
2023/06/24 04:50:18;;;;;;;3.30;2.10;;;;;;;;;;5019743;28;20029;-82
2023/06/24 04:52:44;;;;;;;2.95;2.10;;;;;;;;;;5040080;28;20494;-83
2023/06/24 04:55:10;;;;;;;4.10;2.10;;;;;;;;;;5045350;28;20040;-83
2023/06/24 04:57:35;;;;;;;3.42;2.20;;;;;;;;;;5046612;28;20064;-84
2023/06/24 05:00:01;;;;;;;4.20;2.25;;;;;;;;;;5049705;28;20048;-82
2023/06/24 05:02:26;;;;;;;2.80;2.20;;;;;;;;;;5052825;28;20036;-83
2023/06/24 05:04:52;;;;;;;3.25;2.00;;;;;;;;;;5042734;28;20037;-83
2023/06/24 05:07:18;;;;;;;3.80;2.35;;;;;;;;;;5037772;28;20032;-83
2023/06/24 05:09:46;;;;;;;3.33;2.42;;;;;;;;;;5041975;28;20421;-83
2023/06/24 05:12:12;;;;;;;3.30;2.33;;;;;;;;;;5044562;28;20029;-84
2023/06/24 05:14:37;;;;;;;3.28;2.28;;;;;;;;;;5046114;28;20401;-83
2023/06/24 05:17:04;;;;;;;3.83;2.47;;;;;;;;;;5050718;28;20061;-82
2023/06/24 05:19:29;;;;;;;4.82;2.38;;;;;;;;;;5053226;28;20090;-81
2023/06/24 05:21:55;;;;;;;3.05;2.30;;;;;;;;;;5032872;28;20045;-83
2023/06/24 05:24:20;;;;;;;4.63;2.40;;;;;;;;;;5037833;28;20037;-81
2023/06/24 05:26:50;;;;;;;2.55;2.15;;;;;;;;;;5041573;28;20044;-82
2023/06/24 05:29:16;;;;;;;3.03;2.25;;;;;;;;;;5045251;28;20052;-82
2023/06/24 05:31:42;;;;;;;3.15;2.17;;;;;;;;;;5048873;28;20045;-81
2023/06/24 05:34:08;;;;;;;5.47;2.25;;;;;;;;;;5051276;28;20029;-83
2023/06/24 05:36:34;;;;;;;3.40;2.13;;;;;;;;;;5052335;28;20120;-83
2023/06/24 05:38:59;;;;;;;3.40;2.20;;;;;;;;;;5022515;28;20037;-83
2023/06/24 05:41:25;;;;;;;3.38;2.38;;;;;;;;;;5037270;28;20048;-82
2023/06/24 05:44:01;;;;;;;3.70;2.30;;;;;;;;;;5041214;28;20076;-81
2023/06/24 05:46:27;;;;;;;4.05;2.40;;;;;;;;;;5043717;28;20037;-82
2023/06/24 05:48:52;;;;;;;4.97;2.40;;;;;;;;;;5047891;28;20039;-83
2023/06/24 05:51:17;;;;;;;3.97;2.45;;;;;;;;;;5050710;28;20124;-81
2023/06/24 05:53:43;;;;;;;3.88;2.38;;;;;;;;;;5047931;28;20073;-82
2023/06/24 05:56:08;;;;;;;3.30;2.15;;;;;;;;;;5036662;28;20041;-83
2023/06/24 05:58:34;;;;;;;4.05;2.10;;;;;;;;;;5040059;28;20072;-81
2023/06/24 06:01:01;;;;;;;2.70;2.05;;;;;;;;;;5042713;28;20048;-81
2023/06/24 06:03:26;;;;;;;3.38;2.10;;;;;;;;;;5046228;28;20037;-82
2023/06/24 06:05:52;;;;;;;3.92;2.30;;;;;;;;;;5049908;28;20037;-82
2023/06/24 06:08:17;;;;;;;4.85;2.55;;;;;;;;;;5051532;28;20025;-82
2023/06/24 06:10:43;;;;;;;3.50;2.20;;;;;;;;;;5038776;28;20091;-82
2023/06/24 06:13:08;;;;;;;3.13;2.38;;;;;;;;;;5034916;28;20064;-82
2023/06/24 06:15:33;;;;;;;4.63;2.20;;;;;;;;;;5039604;28;20047;-81
2023/06/24 06:17:59;;;;;;;4.60;2.42;;;;;;;;;;5043929;28;20037;-82
2023/06/24 06:20:24;;;;;;;5.50;2.30;;;;;;;;;;5046755;28;20029;-82
2023/06/24 06:22:51;;;;;;;2.75;2.03;;;;;;;;;;5049895;28;20039;-82
2023/06/24 06:25:16;;;;;;;4.25;2.20;;;;;;;;;;5052399;28;20028;-81
2023/06/24 06:27:42;;;;;;;2.90;2.10;;;;;;;;;;5030016;28;20044;-82
2023/06/24 06:30:08;;;;;;;3.78;2.40;;;;;;;;;;5037361;28;20037;-82
2023/06/24 06:32:33;;;;;;;3.15;2.10;;;;;;;;;;5040816;28;20037;-82
2023/06/24 06:34:59;;;;;;;4.75;2.50;;;;;;;;;;5044634;28;20048;-82
2023/06/24 06:37:24;;;;;;;4.85;2.28;;;;;;;;;;5047399;28;20129;-82
2023/06/24 06:39:49;;;;;;;4.95;2.40;;;;;;;;;;5047575;28;20037;-82
2023/06/24 06:42:15;;;;;;;3.90;2.55;;;;;;;;;;5046880;28;20529;-81
2023/06/24 06:44:41;;;;;;;3.00;2.17;;;;;;;;;;5020486;28;20065;-82
2023/06/24 06:47:07;;;;;;;4.18;2.30;;;;;;;;;;5015925;28;20418;-82
2023/06/24 06:49:32;;;;;;;2.95;2.38;;;;;;;;;;5041743;28;20098;-82
2023/06/24 06:51:58;;;;;;;3.22;2.20;;;;;;;;;;5045549;28;20033;-82
2023/06/24 06:54:23;;;;;;;4.07;2.40;;;;;;;;;;5046709;28;20414;-80
2023/06/24 06:56:49;;;;;;;3.90;2.55;;;;;;;;;;5050295;28;20118;-81
2023/06/24 06:59:14;;;;;;;3.92;2.15;;;;;;;;;;5048246;28;20051;-82
2023/06/24 07:01:39;;;;;;;4.35;2.20;;;;;;;;;;5033753;28;20494;-81
2023/06/24 07:04:05;;;;;;;5.63;2.67;;;;;;;;;;5037351;28;20041;-82
2023/06/24 07:06:32;;;;;;;4.88;2.33;;;;;;;;;;5037579;28;20029;-80
2023/06/24 07:08:58;;;;;;;5.10;2.30;;;;;;;;;;5013564;28;20029;-82
2023/06/24 07:11:23;;;;;;;3.35;2.30;;;;;;;;;;5040676;28;20091;-81
2023/06/24 07:13:51;;;;;;;4.97;2.38;;;;;;;;;;5050304;28;20079;-81
2023/06/24 07:16:17;;;;;;;4.35;2.22;;;;;;;;;;5038303;28;20038;-81
2023/06/24 07:18:43;;;;;;;2.92;2.20;;;;;;;;;;5035286;28;20030;-81
2023/06/24 07:21:08;;;;;;;2.67;2.28;;;;;;;;;;5040152;28;20452;-81
2023/06/24 07:23:34;;;;;;;4.32;2.30;;;;;;;;;;5040514;28;20187;-83
2023/06/24 07:25:59;;;;;;;3.50;2.38;;;;;;;;;;5045406;28;20040;-81
2023/06/24 07:28:25;;;;;;;3.33;2.13;;;;;;;;;;5048196;28;20071;-82
2023/06/24 07:30:50;;;;;;;3.17;2.20;;;;;;;;;;5050967;28;20040;-80
2023/06/24 07:33:16;;;;;;;3.10;2.22;;;;;;;;;;5029959;28;20033;-81
2023/06/24 07:35:41;;;;;;;3.10;2.40;;;;;;;;;;5035272;28;20495;-82
2023/06/24 07:38:07;;;;;;;4.55;2.10;;;;;;;;;;5044023;28;20569;-81
2023/06/24 07:40:32;;;;;;;4.28;2.00;;;;;;;;;;5049555;28;20040;-84
2023/06/24 07:42:58;;;;;;;4.55;2.20;;;;;;;;;;5030883;28;20033;-85
2023/06/24 07:45:25;;;;;;;2.22;1.70;;;;;;;;;;5045387;28;20143;-83
2023/06/24 07:47:50;;;;;;;3.90;1.80;;;;;;;;;;5048568;28;20064;-82
2023/06/24 07:50:16;;;;;;;2.40;1.90;;;;;;;;;;5024947;28;20034;-86
2023/06/24 07:52:41;;;;;;;2.75;1.90;;;;;;;;;;5026149;28;20034;-86
2023/06/24 07:55:07;;;;;;;3.05;1.90;;;;;;;;;;5032809;28;20116;-85
2023/06/24 07:57:33;;;;;;;2.75;2.15;;;;;;;;;;5042076;28;20491;-85
2023/06/24 07:59:58;;;;;;;2.65;1.83;;;;;;;;;;5035679;28;20491;-85
2023/06/24 08:02:24;;;;;;;3.72;2.40;;;;;;;;;;5044502;28;20044;-86
2023/06/24 08:04:50;;;;;;;2.70;2.13;;;;;;;;;;5047972;28;20495;-85
2023/06/24 08:07:16;;;;;;;4.80;2.35;;;;;;;;;;5036468;28;20500;-86
2023/06/24 08:09:43;;;;;;;3.05;2.30;;;;;;;;;;5041150;28;20053;-84
2023/06/24 08:12:09;;;;;;;3.42;2.22;;;;;;;;;;5047875;28;20087;-85
2023/06/24 08:14:35;;;;;;;3.30;2.17;;;;;;;;;;5042817;28;20029;-85
2023/06/24 08:17:00;;;;;;;3.60;2.30;;;;;;;;;;5043165;28;20079;-87
2023/06/24 08:19:26;;;;;;;2.90;2.10;;;;;;;;;;5046512;28;20042;-86
2023/06/24 08:21:51;;;;;;;5.00;2.40;;;;;;;;;;5042913;28;20042;-84
2023/06/24 08:24:17;;;;;;;3.83;2.28;;;;;;;;;;5035594;28;20044;-87
2023/06/24 08:26:42;;;;;;;2.88;2.20;;;;;;;;;;5022691;28;20057;-86
2023/06/24 08:29:08;;;;;;;6.28;2.45;;;;;;;;;;5040103;28;20057;-86
2023/06/24 08:31:33;;;;;;;3.25;2.40;;;;;;;;;;5041576;28;20133;-86
2023/06/24 08:33:59;;;;;;;4.82;2.55;;;;;;;;;;5049786;28;20044;-85
2023/06/24 08:36:27;;;;;;;3.72;2.30;;;;;;;;;;5038648;28;20046;-87
2023/06/24 08:38:53;;;;;;;4.60;2.40;;;;;;;;;;5034698;28;20065;-86
2023/06/24 08:41:18;;;;;;;2.72;2.15;;;;;;;;;;5037205;28;20037;-87
2023/06/24 08:43:44;;;;;;;3.20;1.92;;;;;;;;;;5025718;28;20500;-86
2023/06/24 08:46:10;;;;;;;2.92;1.95;;;;;;;;;;5041992;28;20033;-86
2023/06/24 08:48:40;;;;;;;3.00;2.20;;;;;;;;;;5045201;28;20871;-84
2023/06/24 08:51:08;;;;;;;2.53;2.00;;;;;;;;;;5038766;28;20056;-86
2023/06/24 08:53:35;;;;;;;3.75;2.13;;;;;;;;;;5048057;28;20029;-88
2023/06/24 08:56:01;;;;;;;3.85;1.88;;;;;;;;;;5040123;28;20046;-88
2023/06/24 08:58:27;;;;;;;3.28;2.05;;;;;;;;;;5037984;28;20036;-88
2023/06/24 09:00:53;;;;;;;3.50;1.80;;;;;;;;;;5039330;28;20765;-86
2023/06/24 09:03:18;;;;;;;4.78;2.10;;;;;;;;;;5046357;28;20553;-87
2023/06/24 09:05:44;;;;;;;3.20;2.00;;;;;;;;;;5046290;28;20162;-82
2023/06/24 09:08:10;;;;;;;3.88;1.98;;;;;;;;;;5047435;28;20030;-87
2023/06/24 09:10:36;;;;;;;2.90;1.85;;;;;;;;;;5048208;28;20045;-87
2023/06/24 09:13:03;;;;;;;2.58;1.90;;;;;;;;;;5043715;28;20144;-86
2023/06/24 09:15:32;;;;;;;3.20;1.90;;;;;;;;;;5037834;28;20053;-88
2023/06/24 09:18:00;;;;;;;3.17;1.95;;;;;;;;;;5029842;28;20029;-87
2023/06/24 09:20:26;;;;;;;2.35;1.65;;;;;;;;;;5043165;28;20052;-86
2023/06/24 09:22:57;;;;;;;3.33;2.15;;;;;;;;;;5031992;28;20041;-85
2023/06/24 09:25:23;;;;;;;4.85;1.90;;;;;;;;;;5034024;28;20040;-86
2023/06/24 09:27:52;;;;;;;3.83;1.67;;;;;;;;;;5038055;28;20057;-86
2023/06/24 09:30:21;;;;;;;5.07;2.58;;;;;;;;;;5038896;28;20056;-87
2023/06/24 09:32:48;;;;;;;3.40;1.90;;;;;;;;;;5040388;28;20072;-88
2023/06/24 09:35:14;;;;;;;2.47;2.00;;;;;;;;;;5042475;28;20410;-87
2023/06/24 09:37:39;;;;;;;3.00;1.80;;;;;;;;;;5046075;28;20057;-88
2023/06/24 09:40:06;;;;;;;2.15;1.90;;;;;;;;;;5052648;28;20061;-87
2023/06/24 09:42:32;;;;;;;2.58;1.90;;;;;;;;;;5051601;28;20123;-88
2023/06/24 09:44:57;;;;;;;2.30;1.70;;;;;;;;;;5052477;28;20280;-86
2023/06/24 09:47:25;;;;;;;2.78;1.92;;;;;;;;;;5040200;28;20045;-87
2023/06/24 09:49:51;;;;;;;2.10;1.65;;;;;;;;;;5042286;28;20025;-89
2023/06/24 09:52:19;;;;;;;2.17;1.70;;;;;;;;;;5048932;28;20033;-87
2023/06/24 09:54:50;;;;;;;2.22;1.65;;;;;;;;;;5043258;28;20037;-87
2023/06/24 09:57:21;;;;;;;2.28;1.73;;;;;;;;;;5048276;28;20131;-86
2023/06/24 09:59:48;;;;;;;2.47;1.80;;;;;;;;;;5038345;28;20033;-88
2023/06/24 10:02:15;;;;;;;2.55;1.63;;;;;;;;;;5039989;28;20029;-88
2023/06/24 10:04:41;;;;;;;2.42;1.88;;;;;;;;;;5040441;28;20030;-87
2023/06/24 10:07:07;;;;;;;2.70;1.65;;;;;;;;;;5023830;28;20042;-84
2023/06/24 10:09:32;;;;;;;2.80;1.88;;;;;;;;;;5043821;28;20102;-85
2023/06/24 10:11:58;;;;;;;2.88;1.70;;;;;;;;;;5046003;28;20045;-90
2023/06/24 10:14:24;;;;;;;3.15;1.92;;;;;;;;;;5036119;28;20411;-85
2023/06/24 10:16:50;;;;;;;2.75;1.98;;;;;;;;;;5034438;28;20044;-85
2023/06/24 10:19:21;;;;;;;3.60;2.58;;;;;;;;;;5037427;28;20025;-83
2023/06/24 10:21:57;;;;;;;3.08;1.80;;;;;;;;;;5039579;28;20418;-84
2023/06/24 10:24:32;;;;;;;2.33;1.80;;;;;;;;;;5041460;28;20087;-85
2023/06/24 10:27:26;;;;;;;2.15;1.63;;;;;;;;;;5046002;28;20036;-85
2023/06/24 10:29:53;;;;;;;2.22;1.70;;;;;;;;;;5028516;28;20513;-85
2023/06/24 10:32:22;;;;;;;2.80;2.10;;;;;;;;;;5034336;28;20044;-85
2023/06/24 10:34:53;;;;;;;2.92;1.80;;;;;;;;;;5024914;28;20061;-84
2023/06/24 10:37:20;;;;;;;2.95;1.90;;;;;;;;;;5037660;28;20033;-84
2023/06/24 10:39:52;;;;;;;3.22;1.95;;;;;;;;;;5042771;28;20048;-84
2023/06/24 10:42:26;;;;;;;2.97;2.00;;;;;;;;;;5045145;28;20078;-84
2023/06/24 10:44:53;;;;;;;3.80;2.08;;;;;;;;;;5042856;28;20091;-84
2023/06/24 10:47:19;;;;;;;2.50;1.90;;;;;;;;;;5051302;28;20128;-84
2023/06/24 10:49:45;;;;;;;2.65;1.95;;;;;;;;;;5045405;28;20036;-84
2023/06/24 10:52:12;;;;;;;2.38;1.90;;;;;;;;;;5032941;28;20041;-84
2023/06/24 10:54:39;;;;;;;3.65;2.15;;;;;;;;;;5040654;28;20028;-84
2023/06/24 10:57:05;;;;;;;4.22;1.95;;;;;;;;;;5044038;28;20110;-84
2023/06/24 10:59:46;;;;;;;3.53;2.00;;;;;;;;;;5046961;28;20034;-84
2023/06/24 11:02:16;;;;;;;2.67;2.03;;;;;;;;;;5045263;28;20071;-84
2023/06/24 11:04:52;;;;;;;2.28;1.80;;;;;;;;;;5052962;28;20587;-84
2023/06/24 11:07:19;;;;;;;3.30;2.33;;;;;;;;;;5036765;28;20124;-84
2023/06/24 11:09:56;;;;;;;2.55;1.90;;;;;;;;;;5036164;28;20041;-84
2023/06/24 11:12:26;;;;;;;2.78;2.00;;;;;;;;;;5036620;28;20034;-83
2023/06/24 11:14:51;;;;;;;2.70;1.88;;;;;;;;;;5044042;28;20047;-84
2023/06/24 11:17:19;;;;;;;3.08;2.05;;;;;;;;;;5047730;28;20425;-84
2023/06/24 11:19:46;;;;;;;3.00;2.03;;;;;;;;;;5026368;28;20689;-85
2023/06/24 11:22:11;;;;;;;3.10;2.20;;;;;;;;;;5043270;28;20526;-84
2023/06/24 11:24:39;;;;;;;3.85;2.35;;;;;;;;;;5034325;28;20037;-85
2023/06/24 11:27:05;;;;;;;3.30;2.13;;;;;;;;;;5038225;28;20072;-84
2023/06/24 11:29:32;;;;;;;3.55;2.10;;;;;;;;;;5042475;28;20112;-84
2023/06/24 11:31:58;;;;;;;6.22;2.30;;;;;;;;;;5045085;28;20041;-85
2023/06/24 11:34:24;;;;;;;2.70;2.20;;;;;;;;;;5047519;28;20036;-85
2023/06/24 11:36:50;;;;;;;2.78;2.00;;;;;;;;;;5045580;28;20567;-84
2023/06/24 11:39:25;;;;;;;4.45;2.38;;;;;;;;;;5042834;28;20083;-85
2023/06/24 11:41:52;;;;;;;2.78;2.00;;;;;;;;;;5037680;28;20034;-84
2023/06/24 11:44:19;;;;;;;3.30;2.30;;;;;;;;;;5040027;28;20072;-84
2023/06/24 11:46:45;;;;;;;3.50;2.30;;;;;;;;;;5041607;28;20094;-86
2023/06/24 11:49:10;;;;;;;4.30;2.33;;;;;;;;;;5046562;28;20037;-84
2023/06/24 11:51:37;;;;;;;3.20;2.20;;;;;;;;;;5049740;28;20048;-85
2023/06/24 11:54:05;;;;;;;2.78;2.20;;;;;;;;;;5051870;28;20051;-85
2023/06/24 11:56:41;;;;;;;4.63;2.47;;;;;;;;;;5021372;28;20041;-85
2023/06/24 11:59:18;;;;;;;3.80;2.42;;;;;;;;;;5040102;28;20025;-86
2023/06/24 12:01:44;;;;;;;3.45;2.35;;;;;;;;;;5028598;28;20040;-85
2023/06/24 12:04:13;;;;;;;4.10;2.20;;;;;;;;;;5042737;28;20119;-85
2023/06/24 12:06:44;;;;;;;5.57;2.22;;;;;;;;;;5044044;28;20045;-85
2023/06/24 12:09:10;;;;;;;2.58;2.17;;;;;;;;;;5045023;28;20717;-85
2023/06/24 12:11:36;;;;;;;5.20;2.30;;;;;;;;;;5041228;28;20069;-85
2023/06/24 12:14:02;;;;;;;3.42;2.22;;;;;;;;;;5034573;28;20139;-85
2023/06/24 12:16:27;;;;;;;4.00;2.60;;;;;;;;;;5036945;28;20022;-85
2023/06/24 12:18:53;;;;;;;3.53;2.30;;;;;;;;;;5042541;28;20033;-85
2023/06/24 12:21:19;;;;;;;3.45;2.35;;;;;;;;;;5044112;28;20033;-85
2023/06/24 12:23:44;;;;;;;2.60;2.20;;;;;;;;;;5046426;28;20490;-85
2023/06/24 12:26:10;;;;;;;3.42;2.40;;;;;;;;;;5049032;28;20029;-86
2023/06/24 12:28:36;;;;;;;3.97;2.65;;;;;;;;;;5041953;28;20507;-84
2023/06/24 12:31:02;;;;;;;4.75;2.38;;;;;;;;;;5034995;28;20048;-84
2023/06/24 12:33:27;;;;;;;2.95;2.20;;;;;;;;;;5039645;28;20037;-84
2023/06/24 12:35:53;;;;;;;3.10;2.42;;;;;;;;;;5043451;28;20029;-85
2023/06/24 12:38:19;;;;;;;2.50;2.15;;;;;;;;;;5050800;28;20056;-86
2023/06/24 12:40:45;;;;;;;3.92;2.50;;;;;;;;;;5047446;28;20044;-84
2023/06/24 12:43:11;;;;;;;2.90;2.20;;;;;;;;;;5050375;28;20037;-85
2023/06/24 12:45:43;;;;;;;3.13;2.30;;;;;;;;;;5039575;28;20045;-85
2023/06/24 12:48:08;;;;;;;3.00;2.47;;;;;;;;;;5040519;28;20559;-85
2023/06/24 12:50:34;;;;;;;2.45;2.15;;;;;;;;;;5043343;28;20044;-85
2023/06/24 12:52:59;;;;;;;4.28;2.50;;;;;;;;;;5045629;28;20487;-84
2023/06/24 12:55:25;;;;;;;3.33;2.30;;;;;;;;;;5044138;28;20045;-85
2023/06/24 12:57:50;;;;;;;5.40;2.35;;;;;;;;;;5051827;28;20037;-85
2023/06/24 13:00:20;;;;;;;3.92;2.50;;;;;;;;;;5051990;28;20098;-85
2023/06/24 13:02:45;;;;;;;2.80;2.20;;;;;;;;;;5036750;28;20044;-86
2023/06/24 13:05:11;;;;;;;4.22;2.55;;;;;;;;;;5041244;28;20045;-85
2023/06/24 13:07:37;;;;;;;3.38;2.35;;;;;;;;;;5045718;28;20038;-84
2023/06/24 13:10:05;;;;;;;4.20;2.40;;;;;;;;;;5047357;28;20517;-84
2023/06/24 13:12:31;;;;;;;3.50;2.63;;;;;;;;;;5052872;28;20036;-84
2023/06/24 13:14:57;;;;;;;3.55;2.40;;;;;;;;;;5056134;28;20121;-84
2023/06/24 13:17:22;;;;;;;3.30;2.58;;;;;;;;;;5050744;28;20491;-83
2023/06/24 13:19:47;;;;;;;5.47;2.67;;;;;;;;;;5041684;28;20775;-84
2023/06/24 13:22:13;;;;;;;3.83;2.67;;;;;;;;;;5041806;28;20080;-84
2023/06/24 13:24:39;;;;;;;3.45;2.30;;;;;;;;;;5047846;28;20036;-85
2023/06/24 13:27:04;;;;;;;3.08;2.53;;;;;;;;;;5045743;28;20040;-84
2023/06/24 13:29:31;;;;;;;3.08;2.58;;;;;;;;;;5046211;28;20033;-84
2023/06/24 13:31:56;;;;;;;3.85;2.60;;;;;;;;;;5051973;28;20129;-84
2023/06/24 13:34:22;;;;;;;3.15;2.30;;;;;;;;;;5048053;28;20076;-85
2023/06/24 13:36:47;;;;;;;3.28;2.33;;;;;;;;;;5024860;28;20041;-84
2023/06/24 13:39:16;;;;;;;4.05;2.45;;;;;;;;;;5040116;28;20410;-84
2023/06/24 13:41:44;;;;;;;5.13;2.42;;;;;;;;;;5031629;28;20061;-84
2023/06/24 13:44:10;;;;;;;3.85;2.47;;;;;;;;;;5043767;28;20033;-85
2023/06/24 13:46:35;;;;;;;4.75;2.50;;;;;;;;;;5051373;28;20067;-83
2023/06/24 13:49:01;;;;;;;4.20;2.45;;;;;;;;;;5053728;28;20041;-84
2023/06/24 13:51:27;;;;;;;5.30;2.20;;;;;;;;;;5024520;28;20048;-85
2023/06/24 13:53:54;;;;;;;4.28;2.42;;;;;;;;;;5039746;28;20044;-84
2023/06/24 13:56:21;;;;;;;2.88;2.00;;;;;;;;;;5041158;28;20095;-85
2023/06/24 13:58:47;;;;;;;3.35;2.40;;;;;;;;;;5044989;28;20056;-86
2023/06/24 14:01:13;;;;;;;4.47;2.42;;;;;;;;;;5041486;28;20034;-85
2023/06/24 14:03:39;;;;;;;6.00;2.72;;;;;;;;;;5048060;28;20458;-85
2023/06/24 14:06:05;;;;;;;3.13;2.22;;;;;;;;;;5040532;28;20022;-85
2023/06/24 14:08:32;;;;;;;3.03;2.40;;;;;;;;;;5036801;28;20041;-85
2023/06/24 14:10:58;;;;;;;3.65;2.30;;;;;;;;;;5034852;28;20121;-84
2023/06/24 14:13:24;;;;;;;4.85;2.60;;;;;;;;;;5042893;28;20065;-85
2023/06/24 14:15:50;;;;;;;3.78;2.58;;;;;;;;;;5045328;28;20063;-84
2023/06/24 14:18:15;;;;;;;2.70;2.30;;;;;;;;;;5049105;28;20049;-85
2023/06/24 14:20:41;;;;;;;3.45;2.58;;;;;;;;;;5049973;28;20456;-85
2023/06/24 14:23:07;;;;;;;3.30;2.60;;;;;;;;;;5039218;28;20033;-85
2023/06/24 14:25:32;;;;;;;3.17;2.53;;;;;;;;;;5034100;28;20069;-85
2023/06/24 14:27:58;;;;;;;4.18;2.50;;;;;;;;;;5040275;28;20030;-84
2023/06/24 14:30:23;;;;;;;3.42;2.33;;;;;;;;;;5042518;28;20501;-84
2023/06/24 14:32:48;;;;;;;3.30;2.58;;;;;;;;;;5032991;28;20029;-85
2023/06/24 14:35:14;;;;;;;2.80;2.42;;;;;;;;;;5043900;28;20110;-84
2023/06/24 14:37:41;;;;;;;2.95;2.42;;;;;;;;;;5051499;28;20031;-83
2023/06/24 14:40:08;;;;;;;3.13;2.55;;;;;;;;;;5027702;28;20021;-85
2023/06/24 14:42:35;;;;;;;3.25;2.40;;;;;;;;;;5038306;28;20251;-85
2023/06/24 14:45:00;;;;;;;3.83;2.40;;;;;;;;;;5043006;28;20033;-84